createdAt,value
2022-10-31T00:01:53.329Z,101942.00
2022-10-31T00:04:23.956Z,101952.28
2022-10-31T00:06:50.471Z,101945.53
2022-10-31T00:09:16.920Z,101951.34
2022-10-31T00:11:43.422Z,101944.56
2022-10-31T00:14:14.884Z,101944.09
2022-10-31T00:16:42.549Z,101948.06
2022-10-31T00:19:09.609Z,101958.75
2022-10-31T00:21:36.394Z,101953.06
2022-10-31T00:24:05.770Z,101958.75
2022-10-31T00:26:32.868Z,101953.44
2022-10-31T00:29:00.224Z,101959.00
2022-10-31T00:31:27.541Z,101958.13
2022-10-31T00:33:54.541Z,101948.25
2022-10-31T00:36:22.623Z,101955.41
2022-10-31T00:38:49.457Z,101954.44
2022-10-31T00:41:17.953Z,101953.56
2022-10-31T00:43:44.501Z,101954.56
2022-10-31T00:46:11.935Z,101943.81
2022-10-31T00:48:38.528Z,101943.09
2022-10-31T00:51:05.427Z,101947.75
2022-10-31T00:53:32.492Z,101940.72
2022-10-31T00:56:04.354Z,101934.81
2022-10-31T00:58:30.868Z,101935.81
2022-10-31T01:00:57.695Z,101932.22
2022-10-31T01:03:26.221Z,101934.06
2022-10-31T01:06:05.546Z,101938.03
2022-10-31T01:08:33.180Z,101940.88
2022-10-31T01:11:18.272Z,101937.56
2022-10-31T01:13:46.096Z,101940.41
2022-10-31T01:16:18.992Z,101945.97
2022-10-31T01:18:45.840Z,101939.66
2022-10-31T01:21:25.291Z,101940.78
2022-10-31T01:23:54.596Z,101940.78
2022-10-31T01:26:25.432Z,101959.19
2022-10-31T01:29:00.692Z,101952.88
2022-10-31T01:31:31.523Z,101937.84
2022-10-31T01:33:58.608Z,101919.81
2022-10-31T01:36:40.802Z,101910.44
2022-10-31T01:39:13.086Z,101910.56
2022-10-31T01:41:43.442Z,101916.00
2022-10-31T01:44:17.087Z,101917.97
2022-10-31T01:46:51.332Z,101915.78
2022-10-31T01:49:22.504Z,101929.72
2022-10-31T01:51:56.846Z,101927.34
2022-10-31T01:54:29.109Z,101926.84
2022-10-31T01:56:58.223Z,101932.53
2022-10-31T01:59:30.785Z,101931.19
2022-10-31T02:01:57.891Z,101931.69
2022-10-31T02:04:27.056Z,101944.63
2022-10-31T02:07:11.584Z,101938.47
2022-10-31T02:09:38.566Z,101937.72
2022-10-31T02:12:06.622Z,101929.69
2022-10-31T02:14:34.366Z,101944.25
2022-10-31T02:17:00.899Z,101942.53
2022-10-31T02:19:28.005Z,101944.63
2022-10-31T02:22:07.108Z,101939.31
2022-10-31T02:24:37.120Z,101937.34
2022-10-31T02:27:08.728Z,101922.91
2022-10-31T02:30:04.683Z,101927.47
2022-10-31T02:32:45.647Z,101932.16
2022-10-31T02:35:28.864Z,101928.84
2022-10-31T02:38:14.624Z,101929.03
2022-10-31T02:40:54.390Z,101922.13
2022-10-31T02:43:55.565Z,101925.94
2022-10-31T02:46:45.988Z,101918.31
2022-10-31T02:49:33.358Z,101923.09
2022-10-31T02:51:59.826Z,101932.47
2022-10-31T02:54:29.926Z,101927.53
2022-10-31T02:57:08.090Z,101934.13
2022-10-31T02:59:36.966Z,101925.38
2022-10-31T03:02:11.497Z,101933.50
2022-10-31T03:04:52.493Z,101925.50
2022-10-31T03:07:44.654Z,101922.66
2022-10-31T03:10:32.331Z,101917.50
2022-10-31T03:13:30.416Z,101916.88
2022-10-31T03:16:39.099Z,101921.41
2022-10-31T03:19:18.442Z,101924.00
2022-10-31T03:21:46.856Z,101925.84
2022-10-31T03:24:16.338Z,101927.69
2022-10-31T03:26:48.592Z,101921.41
2022-10-31T03:29:19.832Z,101925.00
2022-10-31T03:31:58.010Z,101925.97
2022-10-31T03:34:30.921Z,101921.41
2022-10-31T03:37:02.523Z,101928.69
2022-10-31T03:39:30.649Z,101923.50
2022-10-31T03:42:12.160Z,101915.84
2022-10-31T03:44:47.155Z,101922.50
2022-10-31T03:47:14.150Z,101919.16
2022-10-31T03:49:40.704Z,101917.53
2022-10-31T03:52:35.458Z,101923.94
2022-10-31T03:55:20.764Z,101922.22
2022-10-31T03:58:09.138Z,101924.81
2022-10-31T04:00:37.954Z,101923.81
2022-10-31T04:03:13.527Z,101931.22
2022-10-31T04:05:52.617Z,101922.22
2022-10-31T04:08:23.999Z,101925.28
2022-10-31T04:10:53.149Z,101924.03
2022-10-31T04:13:25.186Z,101922.88
2022-10-31T04:16:04.831Z,101922.47
2022-10-31T04:18:32.837Z,101927.25
2022-10-31T04:21:08.064Z,101921.97
2022-10-31T04:23:36.321Z,101920.97
2022-10-31T04:26:14.845Z,101927.38
2022-10-31T04:28:43.921Z,101920.13
2022-10-31T04:31:13.112Z,101924.66
2022-10-31T04:33:40.184Z,101922.72
2022-10-31T04:36:08.246Z,101918.16
2022-10-31T04:38:34.831Z,101922.72
2022-10-31T04:41:04.356Z,101915.56
2022-10-31T04:43:49.599Z,101902.03
2022-10-31T04:46:17.121Z,101913.72
2022-10-31T04:48:43.702Z,101911.88
2022-10-31T04:51:11.228Z,101912.75
2022-10-31T04:53:39.109Z,101913.50
2022-10-31T04:56:31.903Z,101909.56
2022-10-31T04:59:06.166Z,101911.19
2022-10-31T05:01:45.324Z,101902.06
2022-10-31T05:04:15.268Z,101896.53
2022-10-31T05:06:42.224Z,101899.13
2022-10-31T05:09:08.930Z,101906.16
2022-10-31T05:11:35.513Z,101900.63
2022-10-31T05:14:21.606Z,101900.50
2022-10-31T05:17:23.189Z,101896.94
2022-10-31T05:20:08.468Z,101900.00
2022-10-31T05:22:55.419Z,101896.13
2022-10-31T05:25:28.536Z,101895.00
2022-10-31T05:27:56.197Z,101893.50
2022-10-31T05:30:25.669Z,101899.97
2022-10-31T05:32:52.965Z,101897.59
2022-10-31T05:35:42.724Z,101906.81
2022-10-31T05:38:38.758Z,101893.72
2022-10-31T05:41:20.079Z,101894.59
2022-10-31T05:43:47.707Z,101893.84
2022-10-31T05:46:42.019Z,101891.47
2022-10-31T05:49:27.367Z,101888.88
2022-10-31T05:52:25.997Z,101891.72
2022-10-31T05:55:04.100Z,101884.56
2022-10-31T05:57:33.208Z,101878.19
2022-10-31T05:59:59.740Z,101882.63
2022-10-31T06:02:27.683Z,101882.50
2022-10-31T06:05:18.687Z,101883.25
2022-10-31T06:07:46.516Z,101875.88
2022-10-31T06:10:13.045Z,101866.78
2022-10-31T06:12:41.576Z,101873.06
2022-10-31T06:15:24.187Z,101877.47
2022-10-31T06:18:04.414Z,101875.63
2022-10-31T06:20:35.441Z,101884.00
2022-10-31T06:23:04.909Z,101889.75
2022-10-31T06:25:34.104Z,101887.38
2022-10-31T06:28:00.995Z,101886.88
2022-10-31T06:30:36.506Z,101873.78
2022-10-31T06:33:05.218Z,101874.47
2022-10-31T06:35:34.316Z,101877.75
2022-10-31T06:38:01.507Z,101880.16
2022-10-31T06:40:35.584Z,101873.47
2022-10-31T06:43:31.708Z,101877.44
2022-10-31T06:46:22.459Z,101879.41
2022-10-31T06:49:05.708Z,101875.94
2022-10-31T06:51:38.316Z,101881.56
2022-10-31T06:54:10.947Z,101883.53
2022-10-31T06:56:37.721Z,101891.53
2022-10-31T06:59:04.985Z,101887.09
2022-10-31T07:01:51.590Z,101899.63
2022-10-31T07:04:23.607Z,101903.09
2022-10-31T07:06:52.524Z,101900.28
2022-10-31T07:09:19.958Z,101890.31
2022-10-31T07:11:47.205Z,101897.56
2022-10-31T07:14:15.658Z,101893.03
2022-10-31T07:16:42.247Z,101898.56
2022-10-31T07:19:09.691Z,101891.41
2022-10-31T07:21:36.183Z,101892.50
2022-10-31T07:24:10.089Z,101891.63
2022-10-31T07:29:29.550Z,101889.56
2022-10-31T07:31:56.101Z,101892.91
2022-10-31T07:34:30.816Z,101903.63
2022-10-31T07:37:19.629Z,101900.50
2022-10-31T07:39:46.380Z,101893.03
2022-10-31T07:42:13.062Z,101897.25
2022-10-31T07:44:47.794Z,101898.41
2022-10-31T07:47:59.553Z,101895.16
2022-10-31T07:50:58.336Z,101899.75
2022-10-31T07:53:43.587Z,101905.47
2022-10-31T07:56:25.364Z,101909.22
2022-10-31T07:58:52.499Z,101914.19
2022-10-31T08:01:18.946Z,101907.13
2022-10-31T08:03:59.027Z,101909.16
2022-10-31T08:06:45.524Z,101906.84
2022-10-31T08:09:24.702Z,101904.66
2022-10-31T08:11:53.973Z,101905.91
2022-10-31T08:14:23.293Z,101910.75
2022-10-31T08:16:53.588Z,101914.59
2022-10-31T08:19:20.833Z,101914.75
2022-10-31T08:21:47.370Z,101909.34
2022-10-31T08:24:18.114Z,101905.84
2022-10-31T08:26:45.180Z,101907.69
2022-10-31T08:29:12.282Z,101909.69
2022-10-31T08:31:42.816Z,101905.16
2022-10-31T08:34:33.484Z,101899.38
2022-10-31T08:37:29.343Z,101900.72
2022-10-31T08:39:56.446Z,101897.88
2022-10-31T08:42:23.141Z,101886.50
2022-10-31T08:44:54.024Z,101882.50
2022-10-31T08:47:22.248Z,101869.47
2022-10-31T08:49:48.892Z,101877.50
2022-10-31T08:52:15.927Z,101878.06
2022-10-31T08:54:45.312Z,101878.59
2022-10-31T08:57:30.540Z,101884.72
2022-10-31T08:59:58.957Z,101888.81
2022-10-31T09:02:31.857Z,101887.75
2022-10-31T09:05:00.934Z,101889.38
2022-10-31T09:07:28.074Z,101878.75
2022-10-31T09:09:54.653Z,101854.44
2022-10-31T09:12:21.226Z,101831.38
2022-10-31T09:15:14.949Z,101823.66
2022-10-31T09:17:49.829Z,101817.09
2022-10-31T09:20:39.773Z,101823.13
2022-10-31T09:23:11.219Z,101818.41
2022-10-31T09:25:41.069Z,101828.28
2022-10-31T09:28:27.604Z,101824.56
2022-10-31T09:30:58.181Z,101821.84
2022-10-31T09:33:43.319Z,101845.19
2022-10-31T09:36:28.400Z,101850.22
2022-10-31T09:38:55.804Z,101842.34
2022-10-31T09:41:56.161Z,101840.94
2022-10-31T09:45:01.552Z,101834.78
2022-10-31T09:47:48.852Z,101828.50
2022-10-31T09:50:56.700Z,101824.22
2022-10-31T09:54:14.101Z,101819.38
2022-10-31T09:56:40.907Z,101804.19
2022-10-31T09:59:18.039Z,101798.47
2022-10-31T10:01:57.272Z,101800.75
2022-10-31T10:04:58.133Z,101808.63
2022-10-31T10:07:33.635Z,101801.03
2022-10-31T10:10:52.559Z,101802.59
2022-10-31T10:13:31.589Z,101793.00
2022-10-31T10:16:22.185Z,101787.38
2022-10-31T10:19:20.809Z,101789.81
2022-10-31T10:21:59.356Z,101789.25
2022-10-31T10:24:45.994Z,101790.50
2022-10-31T10:27:41.457Z,101785.91
2022-10-31T10:30:11.115Z,101778.28
2022-10-31T10:32:52.218Z,101774.38
2022-10-31T10:35:56.703Z,101764.16
2022-10-31T10:39:15.452Z,101761.63
2022-10-31T10:41:47.927Z,101756.38
2022-10-31T10:44:18.654Z,101753.16
2022-10-31T10:47:14.537Z,101751.06
2022-10-31T10:49:40.972Z,101733.56
2022-10-31T10:52:42.109Z,101729.22
2022-10-31T10:55:28.866Z,101728.72
2022-10-31T10:58:04.839Z,101722.41
2022-10-31T11:00:33.394Z,101715.06
2022-10-31T11:03:00.134Z,101702.28
2022-10-31T11:05:53.600Z,101711.31
2022-10-31T11:08:27.463Z,101719.94
2022-10-31T11:11:04.934Z,101713.47
2022-10-31T11:13:33.771Z,101707.53
2022-10-31T11:16:29.445Z,101713.69
2022-10-31T11:19:27.799Z,101706.19
2022-10-31T11:21:54.804Z,101705.00
2022-10-31T11:24:24.335Z,101710.31
2022-10-31T11:26:52.227Z,101700.94
2022-10-31T11:29:26.388Z,101705.25
2022-10-31T11:31:56.085Z,101698.59
2022-10-31T11:34:29.196Z,101692.66
2022-10-31T11:37:02.867Z,101695.09
2022-10-31T11:39:29.703Z,101682.81
2022-10-31T11:42:03.803Z,101674.31
2022-10-31T11:44:42.079Z,101667.66
2022-10-31T11:47:16.105Z,101660.00
2022-10-31T11:49:45.631Z,101645.66
2022-10-31T11:52:19.781Z,101639.72
2022-10-31T11:55:01.899Z,101639.91
2022-10-31T11:57:32.012Z,101617.75
2022-10-31T12:00:01.399Z,101610.13
2022-10-31T12:02:28.212Z,101614.09
2022-10-31T12:05:12.546Z,101613.84
2022-10-31T12:07:39.051Z,101611.63
2022-10-31T12:10:12.854Z,101610.09
2022-10-31T12:13:09.584Z,101596.44
2022-10-31T12:15:39.515Z,101590.78
2022-10-31T12:18:05.907Z,101577.44
2022-10-31T12:20:53.882Z,101576.25
2022-10-31T12:23:44.241Z,101557.75
2022-10-31T12:26:24.295Z,101553.69
2022-10-31T12:29:15.263Z,101556.59
2022-10-31T12:31:49.104Z,101547.66
2022-10-31T12:34:52.488Z,101540.13
2022-10-31T12:37:43.743Z,101527.81
2022-10-31T12:40:16.145Z,101523.38
2022-10-31T12:43:01.772Z,101517.88
2022-10-31T12:45:38.070Z,101510.53
2022-10-31T12:48:10.135Z,101520.44
2022-10-31T12:51:04.322Z,101496.16
2022-10-31T12:53:53.987Z,101499.56
2022-10-31T12:56:54.304Z,101486.75
2022-10-31T12:59:45.530Z,101484.84
2022-10-31T13:02:20.966Z,101480.06
2022-10-31T13:05:10.895Z,101477.31
2022-10-31T13:07:44.732Z,101479.22
2022-10-31T13:10:36.715Z,101463.81
2022-10-31T13:13:22.183Z,101452.69
2022-10-31T13:15:54.417Z,101439.84
2022-10-31T13:18:46.480Z,101430.09
2022-10-31T13:21:51.525Z,101432.84
2022-10-31T13:24:35.686Z,101418.81
2022-10-31T13:27:09.029Z,101418.47
2022-10-31T13:29:43.656Z,101411.13
2022-10-31T13:32:11.624Z,101409.44
2022-10-31T13:34:48.172Z,101407.72
2022-10-31T13:37:38.398Z,101392.66
2022-10-31T13:40:19.777Z,101389.22
2022-10-31T13:43:03.944Z,101383.06
2022-10-31T13:45:33.513Z,101370.41
2022-10-31T13:48:15.254Z,101368.88
2022-10-31T13:50:43.084Z,101365.28
2022-10-31T13:53:21.463Z,101371.78
2022-10-31T13:56:06.696Z,101363.06
2022-10-31T13:58:33.265Z,101362.22
2022-10-31T14:01:08.864Z,101366.31
2022-10-31T14:06:54.008Z,101350.94
2022-10-31T14:09:28.711Z,101348.88
2022-10-31T14:11:56.968Z,101349.91
2022-10-31T14:14:51.161Z,101339.13
2022-10-31T14:17:24.378Z,101335.03
2022-10-31T14:20:01.533Z,101328.88
2022-10-31T14:22:34.586Z,101326.66
2022-10-31T14:25:27.258Z,101319.97
2022-10-31T14:27:54.203Z,101309.03
2022-10-31T14:30:23.845Z,101308.34
2022-10-31T14:32:57.988Z,101303.22
2022-10-31T14:35:54.764Z,101290.91
2022-10-31T14:38:33.342Z,101286.47
2022-10-31T14:41:37.621Z,101290.22
2022-10-31T14:44:09.865Z,101286.66
2022-10-31T14:47:08.116Z,101279.47
2022-10-31T14:49:49.770Z,101278.44
2022-10-31T14:52:19.203Z,101267.34
2022-10-31T14:54:55.255Z,101266.66
2022-10-31T14:57:27.833Z,101267.69
2022-10-31T15:00:03.792Z,101264.94
2022-10-31T15:02:53.589Z,101276.06
2022-10-31T15:05:21.674Z,101277.25
2022-10-31T15:07:59.063Z,101274.00
2022-10-31T15:10:39.010Z,101264.28
2022-10-31T15:13:20.931Z,101255.38
2022-10-31T15:15:51.300Z,101257.09
2022-10-31T15:18:22.864Z,101242.75
2022-10-31T15:20:51.042Z,101232.66
2022-10-31T15:23:24.412Z,101236.75
2022-10-31T15:25:59.500Z,101231.47
2022-10-31T15:28:29.050Z,101219.00
2022-10-31T15:30:58.152Z,101218.66
2022-10-31T15:33:33.809Z,101205.69
2022-10-31T15:36:04.980Z,101194.56
2022-10-31T15:38:31.622Z,101196.25
2022-10-31T15:41:07.810Z,101192.50
2022-10-31T15:43:37.817Z,101193.03
2022-10-31T15:46:08.218Z,101180.91
2022-10-31T15:48:35.915Z,101177.78
2022-10-31T15:51:03.470Z,101175.72
2022-10-31T15:53:48.320Z,101178.13
2022-10-31T15:56:22.683Z,101170.28
2022-10-31T15:58:51.472Z,101170.78
2022-10-31T16:01:32.954Z,101161.56
2022-10-31T16:04:13.229Z,101160.19
2022-10-31T16:06:39.999Z,101162.41
2022-10-31T16:09:22.704Z,101162.03
2022-10-31T16:11:49.572Z,101150.56
2022-10-31T16:14:25.819Z,101146.47
2022-10-31T16:16:55.311Z,101154.84
2022-10-31T16:19:51.250Z,101153.47
2022-10-31T16:22:24.813Z,101151.59
2022-10-31T16:25:14.581Z,101143.91
2022-10-31T16:27:51.732Z,101150.38
2022-10-31T16:30:48.388Z,101150.03
2022-10-31T16:33:34.285Z,101148.66
2022-10-31T16:36:30.117Z,101145.41
2022-10-31T16:38:49.586Z,101144.03
2022-10-31T16:41:16.037Z,101145.38
2022-10-31T16:43:42.546Z,101134.94
2022-10-31T16:48:46.613Z,101128.94
2022-10-31T16:51:13.141Z,101133.72
2022-10-31T16:53:44.136Z,101141.03
2022-10-31T16:56:28.680Z,101141.22
2022-10-31T16:58:55.250Z,101141.38
2022-10-31T17:01:22.166Z,101141.53
2022-10-31T17:03:48.750Z,101138.28
2022-10-31T17:06:16.577Z,101131.28
2022-10-31T17:08:43.059Z,101128.03
2022-10-31T17:11:19.844Z,101122.06
2022-10-31T17:13:46.467Z,101112.16
2022-10-31T17:16:17.508Z,101121.53
2022-10-31T17:18:44.126Z,101109.94
2022-10-31T17:21:18.277Z,101102.78
2022-10-31T17:23:45.044Z,101102.78
2022-10-31T17:26:11.879Z,101102.06
2022-10-31T17:28:38.535Z,101102.94
2022-10-31T17:31:06.040Z,101106.53
2022-10-31T17:33:32.605Z,101103.78
2022-10-31T17:35:59.059Z,101100.22
2022-10-31T17:38:25.585Z,101088.41
2022-10-31T17:40:52.057Z,101091.31
2022-10-31T17:43:18.817Z,101086.03
2022-10-31T17:45:45.512Z,101092.50
2022-10-31T17:48:12.915Z,101081.75
2022-10-31T17:50:39.561Z,101080.22
2022-10-31T17:53:06.042Z,101078.50
2022-10-31T17:55:37.675Z,101076.09
2022-10-31T17:58:05.208Z,101078.13
2022-10-31T18:00:31.824Z,101068.59
2022-10-31T18:02:58.871Z,101069.75
2022-10-31T18:05:26.876Z,101061.75
2022-10-31T18:07:53.403Z,101068.56
2022-10-31T18:10:19.859Z,101066.16
2022-10-31T18:12:48.567Z,101064.78
2022-10-31T18:15:16.348Z,101067.81
2022-10-31T18:17:42.816Z,101077.16
2022-10-31T18:20:10.571Z,101068.47
2022-10-31T18:22:37.094Z,101079.69
2022-10-31T18:25:05.540Z,101075.41
2022-10-31T18:27:33.195Z,101070.47
2022-10-31T18:29:59.760Z,101071.47
2022-10-31T18:32:26.207Z,101068.03
2022-10-31T18:34:54.556Z,101056.75
2022-10-31T18:37:21.028Z,101052.50
2022-10-31T18:39:47.481Z,101049.94
2022-10-31T18:42:13.971Z,101040.75
2022-10-31T18:44:41.603Z,101032.91
2022-10-31T18:47:08.144Z,101038.50
2022-10-31T18:49:34.652Z,101034.75
2022-10-31T18:52:01.269Z,101038.50
2022-10-31T18:54:28.588Z,101037.66
2022-10-31T18:56:55.889Z,101035.09
2022-10-31T18:59:22.457Z,101031.50
2022-10-31T19:01:49.116Z,101034.22
2022-10-31T19:04:17.569Z,101039.00
2022-10-31T19:06:44.169Z,101038.25
2022-10-31T19:09:10.695Z,101044.72
2022-10-31T19:11:38.492Z,101045.72
2022-10-31T19:14:23.203Z,101037.03
2022-10-31T19:16:52.373Z,101039.75
2022-10-31T19:19:20.519Z,101043.66
2022-10-31T19:21:47.294Z,101041.25
2022-10-31T19:24:16.521Z,101039.53
2022-10-31T19:26:43.092Z,101028.66
2022-10-31T19:29:10.118Z,101033.25
2022-10-31T19:31:36.593Z,101036.13
2022-10-31T19:34:03.106Z,101027.25
2022-10-31T19:36:45.864Z,101029.28
2022-10-31T19:39:12.459Z,101030.47
2022-10-31T19:41:39.076Z,101028.91
2022-10-31T19:44:11.784Z,101021.94
2022-10-31T19:46:59.749Z,101021.41
2022-10-31T19:49:26.303Z,101014.25
2022-10-31T19:51:52.834Z,101022.72
2022-10-31T19:54:20.687Z,101022.03
2022-10-31T19:56:47.144Z,101014.19
2022-10-31T19:59:13.716Z,101013.50
2022-10-31T20:01:40.260Z,101012.47
2022-10-31T20:04:10.918Z,101004.31
2022-10-31T20:06:40.229Z,101003.47
2022-10-31T20:09:10.056Z,100993.59
2022-10-31T20:11:38.702Z,100998.16
2022-10-31T20:14:13.401Z,101002.91
2022-10-31T20:16:40.122Z,100993.91
2022-10-31T20:19:06.822Z,100993.91
2022-10-31T20:21:37.214Z,100987.91
2022-10-31T20:24:18.685Z,100990.09
2022-10-31T20:26:45.180Z,100992.66
2022-10-31T20:29:18.017Z,100988.25
2022-10-31T20:31:46.049Z,100982.09
2022-10-31T20:34:15.639Z,100973.09
2022-10-31T20:36:42.130Z,100974.09
2022-10-31T20:39:09.302Z,100978.69
2022-10-31T20:41:39.446Z,100967.13
2022-10-31T20:44:10.672Z,100969.84
2022-10-31T20:46:37.248Z,100963.53
2022-10-31T20:49:03.778Z,100963.69
2022-10-31T20:51:31.715Z,100958.41
2022-10-31T20:53:59.784Z,100957.56
2022-10-31T20:56:27.871Z,100962.16
2022-10-31T20:58:56.060Z,100958.56
2022-10-31T21:01:28.541Z,100952.13
2022-10-31T21:03:55.855Z,100950.09
2022-10-31T21:06:23.359Z,100940.22
2022-10-31T21:08:50.684Z,100935.78
2022-10-31T21:11:21.803Z,100935.78
2022-10-31T21:13:49.486Z,100928.66
2022-10-31T21:16:19.918Z,100933.22
2022-10-31T21:18:47.349Z,100931.38
2022-10-31T21:21:20.726Z,100933.22
2022-10-31T21:23:48.038Z,100931.38
2022-10-31T21:26:19.251Z,100921.50
2022-10-31T21:28:45.724Z,100925.06
2022-10-31T21:31:14.910Z,100926.25
2022-10-31T21:33:42.046Z,100919.25
2022-10-31T21:36:09.632Z,100908.53
2022-10-31T21:38:36.708Z,100910.69
2022-10-31T21:41:06.913Z,100906.22
2022-10-31T21:43:36.189Z,100898.91
2022-10-31T21:46:05.029Z,100892.50
2022-10-31T21:48:31.601Z,100890.47
2022-10-31T21:51:03.029Z,100894.22
2022-10-31T21:53:47.897Z,100886.06
2022-10-31T21:56:14.436Z,100886.06
2022-10-31T21:58:40.948Z,100880.59
2022-10-31T22:01:07.478Z,100882.47
2022-10-31T22:03:38.874Z,100881.63
2022-10-31T22:06:08.571Z,100877.16
2022-10-31T22:08:35.133Z,100871.88
2022-10-31T22:11:05.833Z,100880.19
2022-10-31T22:13:33.367Z,100876.47
2022-10-31T22:16:02.257Z,100872.91
2022-10-31T22:18:28.975Z,100866.59
2022-10-31T22:21:05.066Z,100866.59
2022-10-31T22:23:31.654Z,100868.31
2022-10-31T22:26:14.526Z,100888.19
2022-10-31T22:28:42.943Z,100890.75
2022-10-31T22:33:45.302Z,100882.59
2022-10-31T22:36:15.308Z,100882.59
2022-10-31T22:38:41.980Z,100885.19
2022-10-31T22:41:11.006Z,100868.03
2022-10-31T22:43:37.946Z,100881.47
2022-10-31T22:46:06.807Z,100863.16
2022-10-31T22:48:42.006Z,100863.84
2022-10-31T22:51:14.436Z,100861.66
2022-10-31T22:53:41.393Z,100850.59
2022-10-31T22:56:09.671Z,100849.44
2022-10-31T22:58:36.774Z,100838.06
2022-10-31T23:01:08.627Z,100835.72
2022-10-31T23:03:36.163Z,100835.06
2022-10-31T23:06:06.026Z,100838.13
2022-10-31T23:08:35.278Z,100829.31
2022-10-31T23:11:03.225Z,100830.69
2022-10-31T23:13:48.439Z,100824.06
2022-10-31T23:16:16.453Z,100814.72
2022-10-31T23:18:49.959Z,100817.44
2022-10-31T23:21:37.462Z,100818.13
2022-10-31T23:24:18.701Z,100823.41
2022-10-31T23:27:03.599Z,100824.94
2022-10-31T23:29:30.075Z,100829.38
2022-10-31T23:31:56.584Z,100827.50
2022-10-31T23:34:24.340Z,100818.16
2022-10-31T23:36:51.012Z,100820.88
2022-10-31T23:39:20.017Z,100814.41
2022-10-31T23:41:49.370Z,100814.94
2022-10-31T23:44:18.716Z,100810.19
2022-10-31T23:46:45.370Z,100815.28
2022-10-31T23:49:11.882Z,100809.69
2022-10-31T23:51:39.207Z,100806.78
2022-10-31T23:54:11.861Z,100802.06
2022-10-31T23:56:38.377Z,100792.03
2022-10-31T23:59:05.094Z,100789.13
